sensor_id;sensor_type;location;lat;lon;timestamp;pressure;altitude;pressure_sealevel;temperature;humidity
23619;BME280;18207;32.078;34.818;2023-10-19T00:00:17;101004.03;;;29.89;41.94
23619;BME280;18207;32.078;34.818;2023-10-19T00:02:51;101006.84;;;29.89;41.55
23619;BME280;18207;32.078;34.818;2023-10-19T00:05:21;101002.38;;;29.88;42.22
23619;BME280;18207;32.078;34.818;2023-10-19T00:07:54;101004.38;;;29.88;41.79
23619;BME280;18207;32.078;34.818;2023-10-19T00:10:25;100998.31;;;29.86;42.15
23619;BME280;18207;32.078;34.818;2023-10-19T00:12:58;100998.31;;;29.86;42.13
23619;BME280;18207;32.078;34.818;2023-10-19T00:15:31;100996.28;;;29.86;42.11
23619;BME280;18207;32.078;34.818;2023-10-19T00:18:03;101011.66;;;29.85;41.93
23619;BME280;18207;32.078;34.818;2023-10-19T00:20:50;101011.25;;;29.83;41.91
23619;BME280;18207;32.078;34.818;2023-10-19T00:23:22;101011.25;;;29.83;42.02
23619;BME280;18207;32.078;34.818;2023-10-19T00:25:57;101013.28;;;29.83;41.83
23619;BME280;18207;32.078;34.818;2023-10-19T00:28:27;101014.06;;;29.83;42.24
23619;BME280;18207;32.078;34.818;2023-10-19T00:30:58;101003.94;;;29.82;42.00
23619;BME280;18207;32.078;34.818;2023-10-19T00:33:32;101005.13;;;29.81;41.87
23619;BME280;18207;32.078;34.818;2023-10-19T00:36:01;101009.22;;;29.80;42.05
23619;BME280;18207;32.078;34.818;2023-10-19T00:38:37;101004.75;;;29.79;41.87
23619;BME280;18207;32.078;34.818;2023-10-19T00:41:21;101002.28;;;29.78;41.87
23619;BME280;18207;32.078;34.818;2023-10-19T00:43:52;101011.19;;;29.76;41.98
23619;BME280;18207;32.078;34.818;2023-10-19T00:46:28;100998.22;;;29.75;41.66
23619;BME280;18207;32.078;34.818;2023-10-19T00:49:02;101006.72;;;29.75;41.91
23619;BME280;18207;32.078;34.818;2023-10-19T00:51:37;101002.25;;;29.74;42.02
23619;BME280;18207;32.078;34.818;2023-10-19T00:54:27;100992.53;;;29.72;42.13
23619;BME280;18207;32.078;34.818;2023-10-19T00:57:03;101002.22;;;29.71;42.19
23619;BME280;18207;32.078;34.818;2023-10-19T00:59:37;100995.75;;;29.70;42.39
23619;BME280;18207;32.078;34.818;2023-10-19T01:02:13;101002.63;;;29.69;42.09
23619;BME280;18207;32.078;34.818;2023-10-19T01:04:50;100996.53;;;29.67;41.75
23619;BME280;18207;32.078;34.818;2023-10-19T01:07:25;100994.50;;;29.68;42.21
23619;BME280;18207;32.078;34.818;2023-10-19T01:10:00;100992.88;;;29.67;42.56
23619;BME280;18207;32.078;34.818;2023-10-19T01:12:33;100991.66;;;29.64;42.63
23619;BME280;18207;32.078;34.818;2023-10-19T01:15:09;100993.69;;;29.64;41.82
23619;BME280;18207;32.078;34.818;2023-10-19T01:17:46;100994.47;;;29.64;42.26
23619;BME280;18207;32.078;34.818;2023-10-19T01:20:23;100992.03;;;29.63;42.36
23619;BME280;18207;32.078;34.818;2023-10-19T01:23:06;100998.50;;;29.63;42.28
23619;BME280;18207;32.078;34.818;2023-10-19T01:25:45;100988.38;;;29.62;42.45
23619;BME280;18207;32.078;34.818;2023-10-19T01:28:18;100997.72;;;29.63;42.47
23619;BME280;18207;32.078;34.818;2023-10-19T01:30:53;100981.91;;;29.62;42.45
23619;BME280;18207;32.078;34.818;2023-10-19T01:33:23;100986.75;;;29.61;42.48
23619;BME280;18207;32.078;34.818;2023-10-19T01:35:53;100991.22;;;29.62;42.59
23619;BME280;18207;32.078;34.818;2023-10-19T01:38:47;100986.75;;;29.61;42.38
23619;BME280;18207;32.078;34.818;2023-10-19T01:41:17;100980.28;;;29.61;42.62
23619;BME280;18207;32.078;34.818;2023-10-19T01:43:48;100984.31;;;29.60;41.90
23619;BME280;18207;32.078;34.818;2023-10-19T01:46:19;100987.16;;;29.60;42.21
23619;BME280;18207;32.078;34.818;2023-10-19T01:48:53;100983.53;;;29.59;42.37
23619;BME280;18207;32.078;34.818;2023-10-19T01:51:26;100981.88;;;29.58;42.58
23619;BME280;18207;32.078;34.818;2023-10-19T01:53:56;100982.69;;;29.59;42.57
23619;BME280;18207;32.078;34.818;2023-10-19T01:56:29;100985.09;;;29.57;42.17
23619;BME280;18207;32.078;34.818;2023-10-19T01:58:58;100985.09;;;29.57;42.25
23619;BME280;18207;32.078;34.818;2023-10-19T02:01:27;100985.09;;;29.57;42.42
23619;BME280;18207;32.078;34.818;2023-10-19T02:04:02;100988.31;;;29.55;42.03
23619;BME280;18207;32.078;34.818;2023-10-19T02:06:35;100998.03;;;29.54;42.53
23619;BME280;18207;32.078;34.818;2023-10-19T02:09:08;100998.03;;;29.54;42.66
23619;BME280;18207;32.078;34.818;2023-10-19T02:11:47;100996.78;;;29.52;42.38
23619;BME280;18207;32.078;34.818;2023-10-19T02:14:17;100991.94;;;29.52;42.54
23619;BME280;18207;32.078;34.818;2023-10-19T02:16:50;100994.75;;;29.52;42.48
23619;BME280;18207;32.078;34.818;2023-10-19T02:19:23;100994.38;;;29.51;42.51
23619;BME280;18207;32.078;34.818;2023-10-19T02:21:56;100989.50;;;29.51;42.44
23619;BME280;18207;32.078;34.818;2023-10-19T02:24:28;100993.53;;;29.50;42.25
23619;BME280;18207;32.078;34.818;2023-10-19T02:26:58;100996.38;;;29.50;42.47
23619;BME280;18207;32.078;34.818;2023-10-19T02:29:29;100998.41;;;29.50;42.56
23619;BME280;18207;32.078;34.818;2023-10-19T02:31:58;100998.78;;;29.48;42.75
23619;BME280;18207;32.078;34.818;2023-10-19T02:34:32;101002.00;;;29.47;42.58
23619;BME280;18207;32.078;34.818;2023-10-19T02:37:02;101002.00;;;29.47;42.36
23619;BME280;18207;32.078;34.818;2023-10-19T02:39:34;101000.38;;;29.46;42.43
23619;BME280;18207;32.078;34.818;2023-10-19T02:42:03;100992.28;;;29.44;42.89
23619;BME280;18207;32.078;34.818;2023-10-19T02:44:32;100996.31;;;29.43;42.34
23619;BME280;18207;32.078;34.818;2023-10-19T02:47:02;100996.31;;;29.43;42.29
23619;BME280;18207;32.078;34.818;2023-10-19T02:49:37;100993.88;;;29.42;42.88
23619;BME280;18207;32.078;34.818;2023-10-19T02:52:07;101005.56;;;29.40;42.68
23619;BME280;18207;32.078;34.818;2023-10-19T02:54:43;101008.41;;;29.40;42.78
23619;BME280;18207;32.078;34.818;2023-10-19T02:57:13;101001.50;;;29.38;42.46
23619;BME280;18207;32.078;34.818;2023-10-19T02:59:42;101001.03;;;29.36;42.65
23619;BME280;18207;32.078;34.818;2023-10-19T03:02:12;100996.59;;;29.35;42.15
23619;BME280;18207;32.078;34.818;2023-10-19T03:04:45;100995.34;;;29.32;42.58
23619;BME280;18207;32.078;34.818;2023-10-19T03:07:16;101000.59;;;29.30;42.43
23619;BME280;18207;32.078;34.818;2023-10-19T03:09:48;100994.91;;;29.30;42.57
23619;BME280;18207;32.078;34.818;2023-10-19T03:12:21;101007.44;;;29.29;42.76
23619;BME280;18207;32.078;34.818;2023-10-19T03:14:53;101000.97;;;29.29;42.33
23619;BME280;18207;32.078;34.818;2023-10-19T03:17:23;101001.38;;;29.27;42.71
23619;BME280;18207;32.078;34.818;2023-10-19T03:19:52;100998.56;;;29.27;42.51
23619;BME280;18207;32.078;34.818;2023-10-19T03:22:23;101003.38;;;29.27;42.55
23619;BME280;18207;32.078;34.818;2023-10-19T03:24:57;101013.91;;;29.26;42.60
23619;BME280;18207;32.078;34.818;2023-10-19T03:27:42;101012.66;;;29.24;42.81
23619;BME280;18207;32.078;34.818;2023-10-19T03:30:13;101004.16;;;29.24;42.75
23619;BME280;18207;32.078;34.818;2023-10-19T03:32:47;101015.88;;;29.22;42.43
23619;BME280;18207;32.078;34.818;2023-10-19T03:35:17;101026.41;;;29.22;42.51
23619;BME280;18207;32.078;34.818;2023-10-19T03:37:48;101030.03;;;29.22;42.74
23619;BME280;18207;32.078;34.818;2023-10-19T03:40:21;101021.53;;;29.22;42.64
23619;BME280;18207;32.078;34.818;2023-10-19T03:42:57;101022.72;;;29.21;42.87
23619;BME280;18207;32.078;34.818;2023-10-19T03:45:27;101015.88;;;29.22;42.79
23619;BME280;18207;32.078;34.818;2023-10-19T03:48:01;101016.28;;;29.21;42.67
23619;BME280;18207;32.078;34.818;2023-10-19T03:50:36;101015.44;;;29.20;42.76
23619;BME280;18207;32.078;34.818;2023-10-19T03:53:06;101032.06;;;29.22;42.85
23619;BME280;18207;32.078;34.818;2023-10-19T03:55:42;101028.41;;;29.21;42.51
23619;BME280;18207;32.078;34.818;2023-10-19T03:58:12;101024.78;;;29.21;43.22
23619;BME280;18207;32.078;34.818;2023-10-19T04:00:42;101027.59;;;29.21;43.06
23619;BME280;18207;32.078;34.818;2023-10-19T04:03:13;101025.56;;;29.21;43.18
23619;BME280;18207;32.078;34.818;2023-10-19T04:05:42;101028.41;;;29.21;42.79
23619;BME280;18207;32.078;34.818;2023-10-19T04:08:14;101029.59;;;29.20;42.58
23619;BME280;18207;32.078;34.818;2023-10-19T04:10:50;101030.81;;;29.19;42.62
23619;BME280;18207;32.078;34.818;2023-10-19T04:13:33;101030.00;;;29.19;43.13
23619;BME280;18207;32.078;34.818;2023-10-19T04:16:04;101038.50;;;29.19;43.14
23619;BME280;18207;32.078;34.818;2023-10-19T04:18:36;101032.00;;;29.18;43.15
23619;BME280;18207;32.078;34.818;2023-10-19T04:21:11;101031.19;;;29.18;43.17
23619;BME280;18207;32.078;34.818;2023-10-19T04:23:42;101033.22;;;29.17;42.79
23619;BME280;18207;32.078;34.818;2023-10-19T04:26:17;101034.81;;;29.18;43.09
23619;BME280;18207;32.078;34.818;2023-10-19T04:28:47;101042.53;;;29.18;43.15
23619;BME280;18207;32.078;34.818;2023-10-19T04:31:20;101044.16;;;29.19;43.09
23619;BME280;18207;32.078;34.818;2023-10-19T04:33:51;101042.13;;;29.19;43.44
23619;BME280;18207;32.078;34.818;2023-10-19T04:36:22;101045.78;;;29.20;42.92
23619;BME280;18207;32.078;34.818;2023-10-19T04:38:53;101049.41;;;29.20;42.92
23619;BME280;18207;32.078;34.818;2023-10-19T04:41:25;101047.41;;;29.21;43.06
23619;BME280;18207;32.078;34.818;2023-10-19T04:43:57;101047.41;;;29.21;43.17
23619;BME280;18207;32.078;34.818;2023-10-19T04:46:33;101049.44;;;29.24;42.99
23619;BME280;18207;32.078;34.818;2023-10-19T04:49:05;101041.78;;;29.24;43.42
23619;BME280;18207;32.078;34.818;2023-10-19T04:51:36;101047.50;;;29.28;43.00
23619;BME280;18207;32.078;34.818;2023-10-19T04:54:06;101048.72;;;29.30;43.56
23619;BME280;18207;32.078;34.818;2023-10-19T04:56:38;101043.53;;;29.36;43.70
23619;BME280;18207;32.078;34.818;2023-10-19T04:59:08;101053.72;;;29.40;43.18
23619;BME280;18207;32.078;34.818;2023-10-19T05:01:37;101057.47;;;29.48;43.62
23619;BME280;18207;32.078;34.818;2023-10-19T05:04:09;101057.16;;;29.56;43.21
23619;BME280;18207;32.078;34.818;2023-10-19T05:06:41;101058.00;;;29.63;43.30
23619;BME280;18207;32.078;34.818;2023-10-19T05:09:15;101052.47;;;29.74;43.58
23619;BME280;18207;32.078;34.818;2023-10-19T05:11:48;101052.13;;;29.82;43.31
23619;BME280;18207;32.078;34.818;2023-10-19T05:14:21;101054.22;;;29.92;43.10
23619;BME280;18207;32.078;34.818;2023-10-19T05:16:52;101061.25;;;30.02;43.17
23619;BME280;18207;32.078;34.818;2023-10-19T05:19:29;101064.16;;;30.12;43.54
23619;BME280;18207;32.078;34.818;2023-10-19T05:22:14;101066.66;;;30.21;43.05
23619;BME280;18207;32.078;34.818;2023-10-19T05:25:03;101067.94;;;30.30;43.45
23619;BME280;18207;32.078;34.818;2023-10-19T05:27:41;101060.72;;;30.40;42.99
23619;BME280;18207;32.078;34.818;2023-10-19T05:30:14;101066.09;;;30.48;42.84
23619;BME280;18207;32.078;34.818;2023-10-19T05:32:44;101068.56;;;30.56;42.91
23619;BME280;18207;32.078;34.818;2023-10-19T05:35:15;101057.66;;;30.65;43.44
23619;BME280;18207;32.078;34.818;2023-10-19T05:37:50;101065.84;;;30.74;42.86
23619;BME280;18207;32.078;34.818;2023-10-19T05:40:20;101060.63;;;30.83;42.85
23619;BME280;18207;32.078;34.818;2023-10-19T05:42:55;101065.53;;;30.93;42.73
23619;BME280;18207;32.078;34.818;2023-10-19T05:45:27;101069.69;;;31.02;43.16
23619;BME280;18207;32.078;34.818;2023-10-19T05:47:58;101067.66;;;31.10;43.27
23619;BME280;18207;32.078;34.818;2023-10-19T05:50:29;101068.09;;;31.19;42.54
23619;BME280;18207;32.078;34.818;2023-10-19T05:53:00;101069.34;;;31.28;42.58
23619;BME280;18207;32.078;34.818;2023-10-19T05:55:31;101068.16;;;31.36;42.59
23619;BME280;18207;32.078;34.818;2023-10-19T05:58:06;101075.91;;;31.46;43.10
23619;BME280;18207;32.078;34.818;2023-10-19T06:00:37;101080.78;;;31.52;42.42
23619;BME280;18207;32.078;34.818;2023-10-19T06:03:07;101076.78;;;31.60;43.21
23619;BME280;18207;32.078;34.818;2023-10-19T06:05:38;101080.47;;;31.68;42.59
23619;BME280;18207;32.078;34.818;2023-10-19T06:08:07;101082.91;;;31.76;43.06
23619;BME280;18207;32.078;34.818;2023-10-19T06:10:37;101078.03;;;31.84;42.99
23619;BME280;18207;32.078;34.818;2023-10-19T06:13:09;101086.19;;;31.92;43.03
23619;BME280;18207;32.078;34.818;2023-10-19T06:15:45;101084.53;;;31.98;42.47
23619;BME280;18207;32.078;34.818;2023-10-19T06:18:16;101087.81;;;32.04;42.75
23619;BME280;18207;32.078;34.818;2023-10-19T06:20:46;101087.03;;;32.10;42.99
23619;BME280;18207;32.078;34.818;2023-10-19T06:23:20;101086.63;;;32.15;43.04
23619;BME280;18207;32.078;34.818;2023-10-19T06:25:52;101090.69;;;32.24;43.01
23619;BME280;18207;32.078;34.818;2023-10-19T06:28:23;101088.66;;;32.28;42.31
23619;BME280;18207;32.078;34.818;2023-10-19T06:30:53;101090.28;;;32.33;42.37
23619;BME280;18207;32.078;34.818;2023-10-19T06:33:23;101096.38;;;32.38;42.81
23619;BME280;18207;32.078;34.818;2023-10-19T06:35:54;101098.41;;;32.45;42.62
23619;BME280;18207;32.078;34.818;2023-10-19T06:38:24;101093.09;;;32.50;42.10
23619;BME280;18207;32.078;34.818;2023-10-19T06:40:54;101097.16;;;32.56;42.46
23619;BME280;18207;32.078;34.818;2023-10-19T06:43:26;101099.22;;;32.63;42.33
23619;BME280;18207;32.078;34.818;2023-10-19T06:46:01;101100.41;;;32.69;42.76
23619;BME280;18207;32.078;34.818;2023-10-19T06:48:30;101110.97;;;32.75;42.67
23619;BME280;18207;32.078;34.818;2023-10-19T06:51:00;101109.75;;;32.80;42.55
23619;BME280;18207;32.078;34.818;2023-10-19T06:53:30;101104.84;;;32.87;42.59
23619;BME280;18207;32.078;34.818;2023-10-19T06:56:01;101105.63;;;32.95;41.85
23619;BME280;18207;32.078;34.818;2023-10-19T06:58:34;101109.69;;;33.01;42.32
23619;BME280;18207;32.078;34.818;2023-10-19T07:01:08;101103.97;;;33.08;41.77
23619;BME280;18207;32.078;34.818;2023-10-19T07:03:39;101108.06;;;33.14;42.24
23619;BME280;18207;32.078;34.818;2023-10-19T07:06:10;101107.19;;;33.20;41.64
23619;BME280;18207;32.078;34.818;2023-10-19T07:08:42;101105.16;;;33.24;41.68
23619;BME280;18207;32.078;34.818;2023-10-19T07:11:12;101102.69;;;33.29;42.24
23619;BME280;18207;32.078;34.818;2023-10-19T07:13:44;101103.50;;;33.33;41.75
23619;BME280;18207;32.078;34.818;2023-10-19T07:16:14;101103.84;;;33.39;42.16
23619;BME280;18207;32.078;34.818;2023-10-19T07:18:46;101099.75;;;33.43;42.21
23619;BME280;18207;32.078;34.818;2023-10-19T07:21:18;101103.81;;;33.49;41.63
23619;BME280;18207;32.078;34.818;2023-10-19T07:23:49;101109.91;;;33.55;41.90
23619;BME280;18207;32.078;34.818;2023-10-19T07:26:20;101107.84;;;33.59;42.23
23619;BME280;18207;32.078;34.818;2023-10-19T07:29:01;101111.09;;;33.64;41.70
23619;BME280;18207;32.078;34.818;2023-10-19T07:31:33;101103.31;;;33.68;41.52
23619;BME280;18207;32.078;34.818;2023-10-19T07:34:03;101113.47;;;33.73;41.99
23619;BME280;18207;32.078;34.818;2023-10-19T07:36:33;101106.13;;;33.75;41.64
23619;BME280;18207;32.078;34.818;2023-10-19T07:39:05;101107.72;;;33.80;41.92
23619;BME280;18207;32.078;34.818;2023-10-19T07:41:47;101110.16;;;33.85;41.55
23619;BME280;18207;32.078;34.818;2023-10-19T07:44:19;101106.03;;;33.89;42.04
23619;BME280;18207;32.078;34.818;2023-10-19T07:46:49;101110.50;;;33.94;41.64
23619;BME280;18207;32.078;34.818;2023-10-19T07:49:19;101105.94;;;34.00;41.51
23619;BME280;18207;32.078;34.818;2023-10-19T07:51:50;101115.72;;;34.05;41.94
23619;BME280;18207;32.078;34.818;2023-10-19T07:54:20;101105.94;;;34.10;41.82
23619;BME280;18207;32.078;34.818;2023-10-19T07:56:50;101103.44;;;34.15;41.32
23619;BME280;18207;32.078;34.818;2023-10-19T07:59:22;101098.88;;;34.21;41.68
23619;BME280;18207;32.078;34.818;2023-10-19T08:01:51;101102.53;;;34.25;41.16
23619;BME280;18207;32.078;34.818;2023-10-19T08:04:21;101095.56;;;34.30;41.54
23619;BME280;18207;32.078;34.818;2023-10-19T08:06:53;101101.25;;;34.33;41.32
23619;BME280;18207;32.078;34.818;2023-10-19T08:09:24;101095.50;;;34.37;41.75
23619;BME280;18207;32.078;34.818;2023-10-19T08:11:59;101096.28;;;34.37;41.36
23619;BME280;18207;32.078;34.818;2023-10-19T08:14:36;101090.56;;;34.37;40.97
23619;BME280;18207;32.078;34.818;2023-10-19T08:17:06;101084.06;;;34.37;41.61
23619;BME280;18207;32.078;34.818;2023-10-19T08:19:37;101083.63;;;34.38;41.04
23619;BME280;18207;32.078;34.818;2023-10-19T08:22:07;101078.75;;;34.39;41.62
23619;BME280;18207;32.078;34.818;2023-10-19T08:24:37;101080.38;;;34.40;41.44
23619;BME280;18207;32.078;34.818;2023-10-19T08:27:13;101081.19;;;34.40;41.64
23619;BME280;18207;32.078;34.818;2023-10-19T08:29:46;101082.38;;;34.43;40.87
23619;BME280;18207;32.078;34.818;2023-10-19T08:32:16;101084.00;;;34.44;41.45
23619;BME280;18207;32.078;34.818;2023-10-19T08:34:46;101081.97;;;34.44;41.48
23619;BME280;18207;32.078;34.818;2023-10-19T08:37:18;101088.03;;;34.46;41.16
23619;BME280;18207;32.078;34.818;2023-10-19T08:39:50;101081.97;;;34.44;41.24
23619;BME280;18207;32.078;34.818;2023-10-19T08:42:20;101076.25;;;34.44;40.95
23619;BME280;18207;32.078;34.818;2023-10-19T08:44:52;101077.06;;;34.45;41.32
23619;BME280;18207;32.078;34.818;2023-10-19T08:47:22;101073.41;;;34.44;40.67
23619;BME280;18207;32.078;34.818;2023-10-19T08:49:54;101069.72;;;34.44;41.41
23619;BME280;18207;32.078;34.818;2023-10-19T08:52:26;101062.38;;;34.43;40.74
23619;BME280;18207;32.078;34.818;2023-10-19T08:55:02;101074.25;;;34.41;41.28
23619;BME280;18207;32.078;34.818;2023-10-19T08:57:32;101064.03;;;34.40;40.82
23619;BME280;18207;32.078;34.818;2023-10-19T09:00:08;101062.41;;;34.39;41.43
23619;BME280;18207;32.078;34.818;2023-10-19T09:02:38;101064.09;;;34.37;41.42
23619;BME280;18207;32.078;34.818;2023-10-19T09:05:08;101071.03;;;34.36;40.91
23619;BME280;18207;32.078;34.818;2023-10-19T09:07:48;101063.28;;;34.33;40.74
23619;BME280;18207;32.078;34.818;2023-10-19T09:10:23;101065.78;;;34.31;41.60
23619;BME280;18207;32.078;34.818;2023-10-19T09:13:01;101054.78;;;34.29;41.35
23619;BME280;18207;32.078;34.818;2023-10-19T09:15:33;101062.16;;;34.27;41.28
23619;BME280;18207;32.078;34.818;2023-10-19T09:18:13;101064.19;;;34.26;40.82
23619;BME280;18207;32.078;34.818;2023-10-19T09:20:46;101057.25;;;34.24;41.51
23619;BME280;18207;32.078;34.818;2023-10-19T09:23:23;101054.41;;;34.24;40.98
23619;BME280;18207;32.078;34.818;2023-10-19T09:25:53;101049.94;;;34.23;41.11
23619;BME280;18207;32.078;34.818;2023-10-19T09:28:25;101055.25;;;34.24;41.04
23619;BME280;18207;32.078;34.818;2023-10-19T09:30:58;101049.53;;;34.24;41.28
23619;BME280;18207;32.078;34.818;2023-10-19T09:33:28;101055.63;;;34.23;41.38
23619;BME280;18207;32.078;34.818;2023-10-19T09:36:03;101054.00;;;34.22;40.92
23619;BME280;18207;32.078;34.818;2023-10-19T09:38:45;101044.25;;;34.19;41.23
23619;BME280;18207;32.078;34.818;2023-10-19T09:41:19;101048.78;;;34.17;40.80
23619;BME280;18207;32.078;34.818;2023-10-19T09:43:50;101041.88;;;34.14;41.43
23619;BME280;18207;32.078;34.818;2023-10-19T09:46:29;101037.41;;;34.13;41.14
23619;BME280;18207;32.078;34.818;2023-10-19T09:49:04;101040.28;;;34.10;41.48
23619;BME280;18207;32.078;34.818;2023-10-19T09:51:38;101038.66;;;34.09;41.40
23619;BME280;18207;32.078;34.818;2023-10-19T09:54:45;101043.16;;;34.06;41.45
23619;BME280;18207;32.078;34.818;2023-10-19T09:57:27;101037.03;;;34.04;41.31
23619;BME280;18207;32.078;34.818;2023-10-19T10:00:04;101031.75;;;34.03;41.52
23619;BME280;18207;32.078;34.818;2023-10-19T10:02:44;101037.06;;;34.01;41.23
23619;BME280;18207;32.078;34.818;2023-10-19T10:05:45;101030.97;;;33.99;41.09
23619;BME280;18207;32.078;34.818;2023-10-19T10:08:31;101022.44;;;33.96;41.43
23619;BME280;18207;32.078;34.818;2023-10-19T10:11:17;101023.69;;;33.95;41.14
23619;BME280;18207;32.078;34.818;2023-10-19T10:13:48;101025.34;;;33.92;41.13
23619;BME280;18207;32.078;34.818;2023-10-19T10:16:26;101022.88;;;33.91;41.06
23619;BME280;18207;32.078;34.818;2023-10-19T10:19:00;101021.25;;;33.90;41.40
23619;BME280;18207;32.078;34.818;2023-10-19T10:21:30;101012.31;;;33.88;41.30
23619;BME280;18207;32.078;34.818;2023-10-19T10:24:05;101013.56;;;33.87;41.52
23619;BME280;18207;32.078;34.818;2023-10-19T10:26:58;101018.88;;;33.85;41.60
23619;BME280;18207;32.078;34.818;2023-10-19T10:29:28;101012.78;;;33.83;41.71
23619;BME280;18207;32.078;34.818;2023-10-19T10:31:59;101016.41;;;33.83;41.96
23619;BME280;18207;32.078;34.818;2023-10-19T10:34:47;101020.53;;;33.82;41.62
23619;BME280;18207;32.078;34.818;2023-10-19T10:37:17;101011.97;;;33.79;41.26
23619;BME280;18207;32.078;34.818;2023-10-19T10:39:48;101012.41;;;33.77;41.39
23619;BME280;18207;32.078;34.818;2023-10-19T10:42:18;101010.34;;;33.78;41.78
23619;BME280;18207;32.078;34.818;2023-10-19T10:44:49;101016.06;;;33.78;41.79
23619;BME280;18207;32.078;34.818;2023-10-19T10:47:22;101018.53;;;33.76;41.25
23619;BME280;18207;32.078;34.818;2023-10-19T10:49:56;101014.06;;;33.75;41.38
23619;BME280;18207;32.078;34.818;2023-10-19T10:52:29;101014.88;;;33.72;41.80
23619;BME280;18207;32.078;34.818;2023-10-19T10:55:07;101012.88;;;33.72;41.02
23619;BME280;18207;32.078;34.818;2023-10-19T10:57:41;101018.97;;;33.71;41.70
23619;BME280;18207;32.078;34.818;2023-10-19T11:00:15;101023.06;;;33.70;41.70
23619;BME280;18207;32.078;34.818;2023-10-19T11:02:47;101012.88;;;33.69;41.33
23619;BME280;18207;32.078;34.818;2023-10-19T11:05:30;101014.91;;;33.68;41.65
23619;BME280;18207;32.078;34.818;2023-10-19T11:08:10;101016.16;;;33.67;41.30
23619;BME280;18207;32.078;34.818;2023-10-19T11:10:43;101010.03;;;33.65;41.22
23619;BME280;18207;32.078;34.818;2023-10-19T11:13:16;101005.97;;;33.66;41.34
23619;BME280;18207;32.078;34.818;2023-10-19T11:15:50;101022.28;;;33.66;41.15
23619;BME280;18207;32.078;34.818;2023-10-19T11:18:29;101000.69;;;33.65;41.85
23619;BME280;18207;32.078;34.818;2023-10-19T11:21:03;101016.63;;;33.62;41.04
23619;BME280;18207;32.078;34.818;2023-10-19T11:23:40;101015.38;;;33.60;41.15
23619;BME280;18207;32.078;34.818;2023-10-19T11:26:11;101006.44;;;33.58;41.54
23619;BME280;18207;32.078;34.818;2023-10-19T11:28:42;101015.38;;;33.56;41.23
23619;BME280;18207;32.078;34.818;2023-10-19T11:31:19;101015.41;;;33.53;41.79
23619;BME280;18207;32.078;34.818;2023-10-19T11:33:51;101010.50;;;33.53;41.55
23619;BME280;18207;32.078;34.818;2023-10-19T11:36:25;101009.31;;;33.51;41.71
23619;BME280;18207;32.078;34.818;2023-10-19T11:38:55;101007.69;;;33.50;41.67
23619;BME280;18207;32.078;34.818;2023-10-19T11:41:25;101009.75;;;33.49;41.31
23619;BME280;18207;32.078;34.818;2023-10-19T11:43:55;100998.75;;;33.48;41.64
23619;BME280;18207;32.078;34.818;2023-10-19T11:46:27;101009.34;;;33.47;41.24
23619;BME280;18207;32.078;34.818;2023-10-19T11:48:58;101004.06;;;33.46;40.84
23619;BME280;18207;32.078;34.818;2023-10-19T11:51:44;100998.34;;;33.46;41.33
23619;BME280;18207;32.078;34.818;2023-10-19T11:54:14;101002.03;;;33.43;41.37
23619;BME280;18207;32.078;34.818;2023-10-19T11:56:46;100996.34;;;33.43;41.54
23619;BME280;18207;32.078;34.818;2023-10-19T11:59:17;100998.00;;;33.40;40.82
23619;BME280;18207;32.078;34.818;2023-10-19T12:01:47;101002.06;;;33.39;41.46
23619;BME280;18207;32.078;34.818;2023-10-19T12:04:17;101005.34;;;33.38;40.95
23619;BME280;18207;32.078;34.818;2023-10-19T12:06:49;100995.97;;;33.37;41.33
23619;BME280;18207;32.078;34.818;2023-10-19T12:09:19;100994.34;;;33.36;41.48
23619;BME280;18207;32.078;34.818;2023-10-19T12:11:52;100996.41;;;33.36;40.89
23619;BME280;18207;32.078;34.818;2023-10-19T12:14:23;101001.25;;;33.35;41.21
23619;BME280;18207;32.078;34.818;2023-10-19T12:16:53;100998.84;;;33.34;41.48
23619;BME280;18207;32.078;34.818;2023-10-19T12:19:27;101000.06;;;33.33;41.56
23619;BME280;18207;32.078;34.818;2023-10-19T12:22:00;101002.91;;;33.33;41.13
23619;BME280;18207;32.078;34.818;2023-10-19T12:24:31;101004.13;;;33.32;41.39
23619;BME280;18207;32.078;34.818;2023-10-19T12:27:01;100993.97;;;33.31;40.94
23619;BME280;18207;32.078;34.818;2023-10-19T12:29:31;101002.13;;;33.29;41.03
23619;BME280;18207;32.078;34.818;2023-10-19T12:32:01;101004.97;;;33.29;40.96
23619;BME280;18207;32.078;34.818;2023-10-19T12:34:31;100996.03;;;33.27;40.96
23619;BME280;18207;32.078;34.818;2023-10-19T12:37:02;101001.75;;;33.27;41.58
23619;BME280;18207;32.078;34.818;2023-10-19T12:39:32;100991.56;;;33.26;41.21
23619;BME280;18207;32.078;34.818;2023-10-19T12:42:11;100992.78;;;33.25;40.93
23619;BME280;18207;32.078;34.818;2023-10-19T12:44:43;100994.41;;;33.26;41.60
23619;BME280;18207;32.078;34.818;2023-10-19T12:47:15;100998.50;;;33.25;41.19
23619;BME280;18207;32.078;34.818;2023-10-19T12:49:46;100998.50;;;33.25;41.16
23619;BME280;18207;32.078;34.818;2023-10-19T12:52:18;100992.78;;;33.25;41.45
23619;BME280;18207;32.078;34.818;2023-10-19T12:54:48;100998.91;;;33.23;41.04
23619;BME280;18207;32.078;34.818;2023-10-19T12:57:20;100993.22;;;33.23;41.31
23619;BME280;18207;32.078;34.818;2023-10-19T12:59:52;100995.25;;;33.23;41.41
23619;BME280;18207;32.078;34.818;2023-10-19T13:02:22;100998.09;;;33.23;41.23
23619;BME280;18207;32.078;34.818;2023-10-19T13:04:52;100994.84;;;33.21;41.28
23619;BME280;18207;32.078;34.818;2023-10-19T13:07:25;101000.53;;;33.21;41.52
23619;BME280;18207;32.078;34.818;2023-10-19T13:09:58;100986.72;;;33.19;41.50